Shaw Air Force Base
KSSC : now visible

Airfield :











YOU CAN JOIN US ON...

 
LOGIN :

Register | Disclaimer

   EN    FR    IT 

 









Legend :    VFR   Marginal VFR   IFR   Intensive IFR   Very Intensive IFR
Visi :
Ceiling :
>= 8 km
>= 3000ft
5 to 8 km
1000 to 3000 ft
1500m to 5 km
500 to 1000 ft
800 to 1500m
200 to 500 ft
< 800m
< 200 ft
Symbols :   Thunderstorms  Fog  Heavy snow  Heavy precipitations  Wind > 20 kt






- Airport Elevation : 241 ft


KSSC - Shaw Air Force Base

CURRENT METAR :
  • 281055Z AUTO 24011KT 10SM CLR 12/07 A2984 RMK AO2 SLP106 T01170070 $

EXPIRED METARs :
  • 280955Z AUTO 23010KT 10SM CLR 12/07 A2983 RMK AO2 SLP102 T01210072 $
  • 280855Z AUTO 23008KT 10SM CLR 12/08 A2982 RMK AO2 SLP098 T01240075 53001 $

TAF TAF KSSC
Valid from the 28 at 08:00 until the 29 at 14:00 UTC


280800Z 2808/2914 24009KT 9999 SKC WS020/27036KT 510202 QNH2986INS
BECMG 2814/2815 25012KT 9999 FEW022 510013 QNH2996INS
BECMG 2815/2816 25015G20KT 9999 SKC 510013 QNH2995INS
BECMG 2822/2823 25006KT 9999 BKN030 QNH2999INS
BECMG 2904/2905 24006KT 8000 BR FEW017 SCT024 QNH3011INS TX16/2819Z TN11/2812Z
KZJX FIR / North America



MET'MAP, your aeronautical weather chart ! - Copyright ORBIFLY December 2007 - Disclaimer

ORBIFLY MET'MAP TEAM :

Programming & Development : Alexandra Zaïnal
Original concept : Baudouin d'Aumeries
Technical & hardware support : Manuel Goepfert
Assistance : Marc-Olivier Méhu




SOURCES & CREDITS :

   NOAA       Earth
Advisory